Time;durP1;ratioP1;P1;durP2;ratioP2;P2;SDS_P1;SDS_P2;PMS_P1;PMS_P2;Temp;Humidity;BMP_temperature;BMP_pressure;BME280_temperature;BME280_humidity;BME280_pressure;Samples;Min_cycle;Max_cycle;Signal;HPM_P1;HPM_P2
2022/12/01 00:00:53;;;;;;;8.07;5.88;;;;;;;;;;5006399;28;20386;-46
2022/12/01 00:03:19;;;;;;;10.07;5.88;;;;;;;;;;5005869;28;20033;-43
2022/12/01 00:05:44;;;;;;;12.38;6.28;;;;;;;;;;5015099;28;20025;-43
2022/12/01 00:08:10;;;;;;;12.82;6.40;;;;;;;;;;5008237;28;20060;-42
2022/12/01 00:10:35;;;;;;;7.60;5.55;;;;;;;;;;5024209;28;20068;-44
2022/12/01 00:13:03;;;;;;;13.82;7.80;;;;;;;;;;5024984;28;20466;-43
2022/12/01 00:15:33;;;;;;;9.55;6.15;;;;;;;;;;5002865;28;20376;-43
2022/12/01 00:17:59;;;;;;;6.85;5.28;;;;;;;;;;5003570;28;20375;-44
2022/12/01 00:20:24;;;;;;;10.10;6.40;;;;;;;;;;5004164;28;20034;-44
2022/12/01 00:22:50;;;;;;;7.55;5.28;;;;;;;;;;5004552;28;20946;-43
2022/12/01 00:25:17;;;;;;;8.35;5.85;;;;;;;;;;5023042;28;20048;-43
2022/12/01 00:27:47;;;;;;;11.10;5.97;;;;;;;;;;5022796;28;20045;-42
2022/12/01 00:30:12;;;;;;;7.03;5.40;;;;;;;;;;5024884;28;20103;-43
2022/12/01 00:32:38;;;;;;;10.73;5.70;;;;;;;;;;5028086;28;20030;-44
2022/12/01 00:35:05;;;;;;;6.55;5.45;;;;;;;;;;5022762;28;20044;-44
2022/12/01 00:37:32;;;;;;;6.43;5.03;;;;;;;;;;5022583;28;20033;-45
2022/12/01 00:39:58;;;;;;;5.50;4.90;;;;;;;;;;5022187;28;20408;-43
2022/12/01 00:42:24;;;;;;;6.90;5.20;;;;;;;;;;5023281;28;20025;-44
2022/12/01 00:44:49;;;;;;;5.68;4.60;;;;;;;;;;5023486;28;20081;-45
2022/12/01 00:47:15;;;;;;;7.10;5.32;;;;;;;;;;5022345;28;20124;-44
2022/12/01 00:49:41;;;;;;;7.18;5.38;;;;;;;;;;5019901;28;20409;-44
2022/12/01 00:52:07;;;;;;;5.93;4.65;;;;;;;;;;5023865;28;20052;-43
2022/12/01 00:54:32;;;;;;;7.97;4.35;;;;;;;;;;5024178;28;20104;-43
2022/12/01 00:56:58;;;;;;;5.32;4.45;;;;;;;;;;5025093;28;20112;-46
2022/12/01 00:59:24;;;;;;;6.18;4.50;;;;;;;;;;5012639;28;20049;-44
2022/12/01 01:01:49;;;;;;;7.00;4.53;;;;;;;;;;5001141;28;20690;-45
2022/12/01 01:04:15;;;;;;;8.65;4.40;;;;;;;;;;5003897;28;20423;-45
2022/12/01 01:06:42;;;;;;;6.63;4.18;;;;;;;;;;5004320;28;20026;-44
2022/12/01 01:09:08;;;;;;;6.65;4.70;;;;;;;;;;5012660;28;20600;-43
2022/12/01 01:11:33;;;;;;;7.65;4.45;;;;;;;;;;5021796;28;20034;-44
2022/12/01 01:13:59;;;;;;;6.03;4.30;;;;;;;;;;5019041;28;20092;-43
2022/12/01 01:16:25;;;;;;;7.68;4.15;;;;;;;;;;5028230;28;20037;-45
2022/12/01 01:18:51;;;;;;;4.88;3.85;;;;;;;;;;5027200;28;20430;-44
2022/12/01 01:21:18;;;;;;;4.95;3.90;;;;;;;;;;5028511;28;20037;-46
2022/12/01 01:23:43;;;;;;;9.00;4.30;;;;;;;;;;5024891;28;20033;-43
2022/12/01 01:26:15;;;;;;;6.25;4.03;;;;;;;;;;5007359;28;20030;-44
2022/12/01 01:28:41;;;;;;;8.82;4.03;;;;;;;;;;5003304;28;20042;-43
2022/12/01 01:31:08;;;;;;;5.30;3.53;;;;;;;;;;5017217;28;20040;-44
2022/12/01 01:33:33;;;;;;;4.28;3.88;;;;;;;;;;5014290;28;20038;-45
2022/12/01 01:35:59;;;;;;;4.53;4.05;;;;;;;;;;5015941;28;20371;-43
2022/12/01 01:38:25;;;;;;;6.38;4.18;;;;;;;;;;5013107;28;20578;-43
2022/12/01 01:40:51;;;;;;;5.15;4.18;;;;;;;;;;5026252;28;20033;-43
2022/12/01 01:43:36;;;;;;;6.80;4.43;;;;;;;;;;5026460;28;20104;-44
2022/12/01 01:46:01;;;;;;;11.48;3.95;;;;;;;;;;5026445;28;20030;-43
2022/12/01 01:48:27;;;;;;;6.95;4.10;;;;;;;;;;5025469;28;20540;-44
2022/12/01 01:50:52;;;;;;;5.50;3.58;;;;;;;;;;5024563;28;20406;-45
2022/12/01 01:53:18;;;;;;;4.68;3.60;;;;;;;;;;5027908;28;20045;-43
2022/12/01 01:55:43;;;;;;;4.57;3.80;;;;;;;;;;5027120;28;20071;-43
2022/12/01 01:58:09;;;;;;;5.88;3.55;;;;;;;;;;5024379;28;20064;-43
2022/12/01 02:00:41;;;;;;;6.45;4.47;;;;;;;;;;5025713;28;20021;-44
2022/12/01 02:03:10;;;;;;;5.60;4.00;;;;;;;;;;5025934;28;20037;-47
2022/12/01 02:05:37;;;;;;;6.75;3.42;;;;;;;;;;5024431;28;20902;-44
2022/12/01 02:08:03;;;;;;;7.20;3.70;;;;;;;;;;5027612;28;20025;-42
2022/12/01 02:10:43;;;;;;;3.50;3.15;;;;;;;;;;5025670;28;20502;-46
2022/12/01 02:13:19;;;;;;;9.48;3.40;;;;;;;;;;5026877;28;23019;-43
2022/12/01 02:16:09;;;;;;;3.92;3.08;;;;;;;;;;5023141;28;20041;-44
2022/12/01 02:19:16;;;;;;;5.25;3.60;;;;;;;;;;5022047;28;21403;-43
2022/12/01 02:21:56;;;;;;;7.45;3.22;;;;;;;;;;5005483;28;20458;-43
2022/12/01 02:24:24;;;;;;;3.70;3.40;;;;;;;;;;5019552;28;20042;-46
2022/12/01 02:26:59;;;;;;;5.85;3.67;;;;;;;;;;5026787;28;20114;-44
2022/12/01 02:29:49;;;;;;;3.42;3.13;;;;;;;;;;5024680;28;20413;-46
2022/12/01 02:32:23;;;;;;;5.65;3.42;;;;;;;;;;5027826;28;20033;-43
2022/12/01 02:35:10;;;;;;;4.05;3.42;;;;;;;;;;5025347;28;20041;-43
2022/12/01 02:37:58;;;;;;;3.63;3.33;;;;;;;;;;5023701;28;20415;-43
2022/12/01 02:40:30;;;;;;;6.63;3.20;;;;;;;;;;5023288;28;20132;-42
2022/12/01 02:43:05;;;;;;;3.35;3.05;;;;;;;;;;5027172;28;20033;-43
2022/12/01 02:45:38;;;;;;;7.30;3.70;;;;;;;;;;5024126;28;20136;-43
2022/12/01 02:48:09;;;;;;;7.35;3.47;;;;;;;;;;5025946;28;20111;-43
2022/12/01 02:50:38;;;;;;;4.53;3.30;;;;;;;;;;5020550;28;20493;-43
2022/12/01 02:53:06;;;;;;;6.55;3.60;;;;;;;;;;5026722;28;20428;-45
2022/12/01 02:55:31;;;;;;;5.03;3.33;;;;;;;;;;5025424;28;20037;-43
2022/12/01 02:57:57;;;;;;;5.90;3.55;;;;;;;;;;5027516;28;20452;-43
2022/12/01 03:00:22;;;;;;;4.38;3.72;;;;;;;;;;5023819;28;20441;-43
2022/12/01 03:03:42;;;;;;;3.55;3.17;;;;;;;;;;5026473;28;20029;-43
2022/12/01 03:06:23;;;;;;;3.70;2.90;;;;;;;;;;4964998;28;20122;-44
2022/12/01 03:09:19;;;;;;;4.93;3.10;;;;;;;;;;4966590;28;20030;-44
2022/12/01 03:11:55;;;;;;;5.43;3.55;;;;;;;;;;4964867;28;20469;-44
2022/12/01 03:14:44;;;;;;;4.88;3.38;;;;;;;;;;4965585;28;20034;-43
2022/12/01 03:17:23;;;;;;;4.45;3.20;;;;;;;;;;4966906;28;20093;-43
2022/12/01 03:20:37;;;;;;;5.93;3.13;;;;;;;;;;4964481;28;20074;-43
2022/12/01 03:23:16;;;;;;;5.10;3.22;;;;;;;;;;4964382;28;20038;-42
2022/12/01 03:25:46;;;;;;;4.78;3.22;;;;;;;;;;4965867;28;20487;-44
2022/12/01 03:28:14;;;;;;;11.98;5.22;;;;;;;;;;4965238;28;20109;-43
2022/12/01 03:30:42;;;;;;;6.00;3.83;;;;;;;;;;4965951;28;20098;-44
2022/12/01 03:33:18;;;;;;;4.07;3.47;;;;;;;;;;4965973;28;20067;-40
2022/12/01 03:35:53;;;;;;;3.15;2.90;;;;;;;;;;4965268;28;20037;-42
2022/12/01 03:38:27;;;;;;;4.57;3.08;;;;;;;;;;4966597;28;20435;-44
2022/12/01 03:41:03;;;;;;;6.72;3.05;;;;;;;;;;5020617;28;20048;-46
2022/12/01 03:43:35;;;;;;;5.40;3.17;;;;;;;;;;5021671;28;20049;-44
2022/12/01 03:46:21;;;;;;;;;;;;;;;;;;5023651;28;20575;-44
2022/12/01 03:48:46;;;;;;;3.20;2.67;;;;;;;;;;5026137;28;20381;-43
2022/12/01 03:51:25;;;;;;;2.78;2.40;;;;;;;;;;5024088;28;20033;-43
2022/12/01 03:53:54;;;;;;;3.30;2.92;;;;;;;;;;5024312;28;20418;-43
2022/12/01 03:56:23;;;;;;;4.45;3.03;;;;;;;;;;5027598;28;20025;-45
2022/12/01 03:58:54;;;;;;;3.45;2.83;;;;;;;;;;5025737;28;20619;-44
2022/12/01 04:01:21;;;;;;;3.70;2.55;;;;;;;;;;5020819;28;20030;-46
2022/12/01 04:03:46;;;;;;;8.27;3.00;;;;;;;;;;5023444;28;20075;-43
2022/12/01 04:06:12;;;;;;;3.78;2.63;;;;;;;;;;5023976;28;20064;-43
2022/12/01 04:08:38;;;;;;;4.03;2.92;;;;;;;;;;5023670;28;20053;-44
2022/12/01 04:12:28;;;;;;;6.22;2.70;;;;;;;;;;5024317;28;20550;-44
2022/12/01 04:13:49;;;;;;;5.90;2.50;;;;;;;;;;5023717;28;20042;-45
2022/12/01 04:16:14;;;;;;;4.10;2.92;;;;;;;;;;5024053;28;20725;-45
2022/12/01 04:18:40;;;;;;;3.78;2.90;;;;;;;;;;5022525;28;20092;-43
2022/12/01 04:21:05;;;;;;;2.95;2.53;;;;;;;;;;5022893;28;20044;-43
2022/12/01 04:26:14;;;;;;;3.28;2.78;;;;;;;;;;5025489;28;20045;-45
2022/12/01 04:28:40;;;;;;;6.65;2.83;;;;;;;;;;5025471;28;20034;-43
2022/12/01 04:31:05;;;;;;;3.03;2.72;;;;;;;;;;5020949;28;20426;-46
2022/12/01 04:33:30;;;;;;;2.95;2.42;;;;;;;;;;5024057;28;20037;-45
2022/12/01 04:35:59;;;;;;;5.22;3.22;;;;;;;;;;5022357;28;20030;-43
2022/12/01 04:38:25;;;;;;;3.03;2.70;;;;;;;;;;5025162;28;20526;-45
2022/12/01 04:40:51;;;;;;;3.45;2.60;;;;;;;;;;5024531;28;20068;-43
2022/12/01 04:43:16;;;;;;;3.10;2.78;;;;;;;;;;5025664;28;20075;-45
2022/12/01 04:45:41;;;;;;;4.78;2.90;;;;;;;;;;5020389;28;20367;-43
2022/12/01 04:48:07;;;;;;;2.85;2.65;;;;;;;;;;5023044;28;20540;-43
2022/12/01 04:50:32;;;;;;;5.20;2.55;;;;;;;;;;5025717;28;20484;-44
2022/12/01 04:52:57;;;;;;;3.22;2.70;;;;;;;;;;5028292;28;20025;-43
2022/12/01 04:55:24;;;;;;;5.03;2.90;;;;;;;;;;5026855;28;20054;-43
2022/12/01 04:57:50;;;;;;;2.90;2.30;;;;;;;;;;5029019;28;20056;-43
2022/12/01 05:00:15;;;;;;;3.45;2.78;;;;;;;;;;5026972;28;20108;-45
2022/12/01 05:02:42;;;;;;;4.68;2.85;;;;;;;;;;5028799;28;20033;-43
2022/12/01 05:05:11;;;;;;;3.60;2.40;;;;;;;;;;5027528;28;20042;-43
2022/12/01 05:07:36;;;;;;;2.78;2.30;;;;;;;;;;5027688;28;20026;-42
2022/12/01 05:10:02;;;;;;;4.28;2.38;;;;;;;;;;5026431;28;20556;-46
2022/12/01 05:12:27;;;;;;;5.47;2.40;;;;;;;;;;5027306;28;20032;-43
2022/12/01 05:14:53;;;;;;;3.97;2.67;;;;;;;;;;5027989;28;20095;-44
2022/12/01 05:17:18;;;;;;;2.90;2.28;;;;;;;;;;5026543;28;20095;-45
2022/12/01 05:22:27;;;;;;;2.47;2.25;;;;;;;;;;5025455;28;20087;-46
2022/12/01 05:24:53;;;;;;;3.65;2.22;;;;;;;;;;5026149;28;20050;-44
2022/12/01 05:27:18;;;;;;;3.17;2.75;;;;;;;;;;5027369;28;20055;-44
2022/12/01 05:29:43;;;;;;;5.82;2.75;;;;;;;;;;5029054;28;20120;-41
2022/12/01 05:32:09;;;;;;;2.75;2.53;;;;;;;;;;5025861;28;20569;-44
2022/12/01 05:34:34;;;;;;;3.38;2.40;;;;;;;;;;5022939;28;20040;-45
2022/12/01 05:36:59;;;;;;;3.72;2.22;;;;;;;;;;5025983;28;20029;-43
2022/12/01 05:39:25;;;;;;;3.45;2.45;;;;;;;;;;5027431;28;20137;-43
2022/12/01 05:41:50;;;;;;;4.50;2.25;;;;;;;;;;5025110;28;20471;-43
2022/12/01 05:44:15;;;;;;;3.40;2.60;;;;;;;;;;5028125;28;20045;-43
2022/12/01 05:46:41;;;;;;;3.22;2.78;;;;;;;;;;5027365;28;20037;-43
2022/12/01 05:49:06;;;;;;;3.63;2.60;;;;;;;;;;5027424;28;20121;-44
2022/12/01 05:51:32;;;;;;;2.83;2.60;;;;;;;;;;5027337;28;20510;-45
2022/12/01 05:54:00;;;;;;;5.30;2.22;;;;;;;;;;5025630;28;20068;-43
2022/12/01 05:56:25;;;;;;;3.80;2.70;;;;;;;;;;5027063;28;20543;-43
2022/12/01 05:58:50;;;;;;;2.97;2.47;;;;;;;;;;5025093;28;20045;-45
2022/12/01 06:01:16;;;;;;;3.47;2.50;;;;;;;;;;5026337;28;20092;-43
2022/12/01 06:03:41;;;;;;;7.43;2.45;;;;;;;;;;5026690;28;20045;-44
2022/12/01 06:06:07;;;;;;;2.63;2.10;;;;;;;;;;5024771;28;20037;-43
2022/12/01 06:08:32;;;;;;;5.43;2.70;;;;;;;;;;5023389;28;20048;-43
2022/12/01 06:10:57;;;;;;;2.97;2.75;;;;;;;;;;5023818;28;20021;-44
2022/12/01 06:13:23;;;;;;;3.97;2.47;;;;;;;;;;5021677;28;20033;-43
2022/12/01 06:15:59;;;;;;;3.72;2.60;;;;;;;;;;5017741;28;20401;-45
2022/12/01 06:18:26;;;;;;;4.40;2.38;;;;;;;;;;5018430;28;20482;-41
2022/12/01 06:20:51;;;;;;;5.55;2.63;;;;;;;;;;5025038;28;20083;-45
2022/12/01 06:23:17;;;;;;;4.63;2.88;;;;;;;;;;5017139;28;20026;-48
2022/12/01 06:25:42;;;;;;;9.70;3.63;;;;;;;;;;5002213;28;20026;-43
2022/12/01 06:28:08;;;;;;;13.50;7.10;;;;;;;;;;5001677;28;20478;-45
2022/12/01 06:30:33;;;;;;;5.22;3.60;;;;;;;;;;5004443;28;20077;-45
2022/12/01 06:32:58;;;;;;;4.45;3.83;;;;;;;;;;5000518;28;20019;-47
2022/12/01 06:35:24;;;;;;;8.60;5.10;;;;;;;;;;5020069;28;21097;-43
2022/12/01 06:37:53;;;;;;;5.70;5.20;;;;;;;;;;5023131;28;20109;-43
2022/12/01 06:40:18;;;;;;;5.70;5.20;;;;;;;;;;5025335;28;20099;-43
2022/12/01 06:42:44;;;;;;;4.43;4.03;;;;;;;;;;5025951;28;20478;-43
2022/12/01 06:45:10;;;;;;;9.38;4.40;;;;;;;;;;5024227;28;20045;-44
2022/12/01 06:47:35;;;;;;;5.97;3.63;;;;;;;;;;5020199;28;20537;-43
2022/12/01 06:50:01;;;;;;;12.70;3.20;;;;;;;;;;5023047;28;20450;-43
2022/12/01 06:52:27;;;;;;;5.00;3.10;;;;;;;;;;5022106;28;20411;-44
2022/12/01 06:54:52;;;;;;;5.10;2.65;;;;;;;;;;5013225;28;20063;-43
2022/12/01 06:57:17;;;;;;;18.10;3.75;;;;;;;;;;5019526;28;20520;-44
2022/12/01 06:59:43;;;;;;;14.82;3.13;;;;;;;;;;5018513;28;20034;-43
2022/12/01 07:02:10;;;;;;;11.35;3.22;;;;;;;;;;5020445;28;20039;-44
2022/12/01 07:04:35;;;;;;;6.43;3.50;;;;;;;;;;5020281;28;20569;-43
2022/12/01 07:07:03;;;;;;;6.07;3.05;;;;;;;;;;5021471;28;20029;-49
2022/12/01 07:09:28;;;;;;;5.63;3.10;;;;;;;;;;5016477;28;20045;-46
2022/12/01 07:11:54;;;;;;;4.85;3.03;;;;;;;;;;5025493;28;20041;-44
2022/12/01 07:14:22;;;;;;;5.68;3.20;;;;;;;;;;5020973;28;20037;-44
2022/12/01 07:16:48;;;;;;;8.05;3.20;;;;;;;;;;5026911;28;20033;-44
2022/12/01 07:19:13;;;;;;;17.70;5.38;;;;;;;;;;5025735;28;20103;-46
2022/12/01 07:21:39;;;;;;;7.93;4.47;;;;;;;;;;5020077;28;20022;-45
2022/12/01 07:24:04;;;;;;;4.88;4.18;;;;;;;;;;5021817;28;20410;-44
2022/12/01 07:26:30;;;;;;;5.35;3.80;;;;;;;;;;5017905;28;20026;-44
2022/12/01 07:28:55;;;;;;;5.93;4.45;;;;;;;;;;5023867;28;20056;-44
2022/12/01 07:31:20;;;;;;;4.55;3.97;;;;;;;;;;5024191;28;20029;-43
2022/12/01 07:33:46;;;;;;;5.93;2.85;;;;;;;;;;5018643;28;20589;-43
2022/12/01 07:36:13;;;;;;;3.45;2.70;;;;;;;;;;5021791;28;20044;-44
2022/12/01 07:38:38;;;;;;;5.57;3.40;;;;;;;;;;5024607;28;20076;-44
2022/12/01 07:41:06;;;;;;;3.10;2.90;;;;;;;;;;5026507;28;20029;-43
2022/12/01 07:43:32;;;;;;;6.68;5.20;;;;;;;;;;5023941;28;20041;-45
2022/12/01 07:46:07;;;;;;;5.05;4.20;;;;;;;;;;5022653;28;20054;-44
2022/12/01 07:48:33;;;;;;;4.32;2.80;;;;;;;;;;5017430;28;20128;-48
2022/12/01 07:50:59;;;;;;;6.65;4.85;;;;;;;;;;5024941;28;20029;-43
2022/12/01 07:53:25;;;;;;;5.25;4.35;;;;;;;;;;5021264;28;20067;-44
2022/12/01 07:55:51;;;;;;;4.75;3.97;;;;;;;;;;5001818;28;20456;-44
2022/12/01 07:58:16;;;;;;;7.10;3.70;;;;;;;;;;5006512;28;20116;-43
2022/12/01 08:00:42;;;;;;;11.35;4.40;;;;;;;;;;5008823;28;20021;-43
2022/12/01 08:03:07;;;;;;;4.18;3.55;;;;;;;;;;5010675;28;20030;-44
2022/12/01 08:05:32;;;;;;;5.07;3.85;;;;;;;;;;5022897;28;20048;-43
2022/12/01 08:07:58;;;;;;;3.38;3.00;;;;;;;;;;5024585;28;20029;-43
2022/12/01 08:10:23;;;;;;;4.97;2.60;;;;;;;;;;5007242;28;20049;-44
2022/12/01 08:12:49;;;;;;;3.25;2.95;;;;;;;;;;5003967;28;20088;-43
2022/12/01 08:15:14;;;;;;;3.55;2.80;;;;;;;;;;5022233;28;20072;-44
2022/12/01 08:17:39;;;;;;;5.45;3.03;;;;;;;;;;5026231;28;20095;-44
2022/12/01 08:20:06;;;;;;;5.15;2.85;;;;;;;;;;5005456;28;20620;-43
2022/12/01 08:22:31;;;;;;;3.15;2.85;;;;;;;;;;5003574;28;20052;-46
2022/12/01 08:24:57;;;;;;;3.10;2.80;;;;;;;;;;5003515;28;20523;-43
2022/12/01 08:27:22;;;;;;;3.70;3.00;;;;;;;;;;5003646;28;20026;-43
2022/12/01 08:29:47;;;;;;;4.80;2.88;;;;;;;;;;5007329;28;20050;-46
2022/12/01 08:32:13;;;;;;;6.30;2.78;;;;;;;;;;5009048;28;20466;-44
2022/12/01 08:34:40;;;;;;;4.35;2.78;;;;;;;;;;5019478;28;20371;-43
2022/12/01 08:37:05;;;;;;;4.93;2.85;;;;;;;;;;5025468;28;20029;-43
2022/12/01 08:39:30;;;;;;;7.90;3.47;;;;;;;;;;5020433;28;20044;-46
2022/12/01 08:41:56;;;;;;;4.18;2.60;;;;;;;;;;5021787;28;20561;-43
2022/12/01 08:44:21;;;;;;;3.55;2.90;;;;;;;;;;5022151;28;20108;-45
2022/12/01 08:46:47;;;;;;;4.93;3.08;;;;;;;;;;5023733;28;20049;-43
2022/12/01 08:49:12;;;;;;;11.93;3.53;;;;;;;;;;5025139;28;20038;-44
2022/12/01 08:51:37;;;;;;;6.25;2.97;;;;;;;;;;5022074;28;20225;-43
2022/12/01 08:54:03;;;;;;;4.00;2.65;;;;;;;;;;5012183;28;20136;-43
2022/12/01 08:56:34;;;;;;;2.95;2.40;;;;;;;;;;5007557;28;20630;-44
2022/12/01 08:59:00;;;;;;;16.45;3.28;;;;;;;;;;5010077;28;20445;-43
2022/12/01 09:01:25;;;;;;;10.85;2.90;;;;;;;;;;5010514;28;20386;-44
2022/12/01 09:04:03;;;;;;;6.97;2.90;;;;;;;;;;5005600;28;20046;-44
2022/12/01 09:06:31;;;;;;;11.95;5.20;;;;;;;;;;5014748;28;20034;-46
2022/12/01 09:08:59;;;;;;;4.10;2.88;;;;;;;;;;5013414;28;20045;-44
2022/12/01 09:11:24;;;;;;;10.68;5.63;;;;;;;;;;5020940;28;20355;-45
2022/12/01 09:13:50;;;;;;;13.93;7.70;;;;;;;;;;5013489;28;20069;-47
2022/12/01 09:16:16;;;;;;;19.90;7.65;;;;;;;;;;5002157;28;20091;-45
2022/12/01 09:18:43;;;;;;;22.60;8.88;;;;;;;;;;5005449;28;20053;-43
2022/12/01 09:21:14;;;;;;;16.17;7.03;;;;;;;;;;5018927;28;20026;-46
2022/12/01 09:23:40;;;;;;;9.70;5.20;;;;;;;;;;5011025;28;21418;-44
2022/12/01 09:26:06;;;;;;;9.00;5.13;;;;;;;;;;5001145;28;20275;-44
2022/12/01 09:28:32;;;;;;;8.63;4.47;;;;;;;;;;5002999;28;20038;-44
2022/12/01 09:31:03;;;;;;;3.88;3.40;;;;;;;;;;5001628;28;20036;-46
2022/12/01 09:33:29;;;;;;;4.97;3.47;;;;;;;;;;5008122;28;20092;-43
2022/12/01 09:35:58;;;;;;;3.28;2.58;;;;;;;;;;5024025;28;20029;-44
2022/12/01 09:38:23;;;;;;;8.20;4.50;;;;;;;;;;5027228;28;20072;-43
2022/12/01 09:40:49;;;;;;;12.85;3.55;;;;;;;;;;5026446;28;20042;-43
2022/12/01 09:43:24;;;;;;;4.32;3.30;;;;;;;;;;5026864;28;20029;-42
2022/12/01 09:45:56;;;;;;;5.03;3.72;;;;;;;;;;5026898;28;20037;-44
2022/12/01 09:48:32;;;;;;;4.53;2.78;;;;;;;;;;5025038;28;20426;-43
2022/12/01 09:50:58;;;;;;;5.72;2.67;;;;;;;;;;5026398;28;20045;-43
2022/12/01 09:53:27;;;;;;;4.30;2.78;;;;;;;;;;5025889;28;20033;-45
2022/12/01 09:55:53;;;;;;;4.68;3.33;;;;;;;;;;5028125;28;20042;-43
2022/12/01 09:58:24;;;;;;;5.82;3.13;;;;;;;;;;5026918;28;20466;-44
2022/12/01 10:00:51;;;;;;;4.43;3.45;;;;;;;;;;5025880;28;20441;-44
2022/12/01 10:03:39;;;;;;;3.17;2.85;;;;;;;;;;5024325;28;20029;-43
2022/12/01 10:06:10;;;;;;;5.25;2.85;;;;;;;;;;5023070;28;20033;-45
2022/12/01 10:08:46;;;;;;;3.17;2.67;;;;;;;;;;5016838;28;20046;-43
2022/12/01 10:11:18;;;;;;;4.05;3.15;;;;;;;;;;5020501;28;20076;-44
2022/12/01 10:13:43;;;;;;;3.15;2.50;;;;;;;;;;5018937;28;20037;-43
2022/12/01 10:16:19;;;;;;;3.97;2.72;;;;;;;;;;5024912;28;20080;-48
2022/12/01 10:18:57;;;;;;;3.28;2.53;;;;;;;;;;5024850;28;20100;-44
2022/12/01 10:21:57;;;;;;;4.07;2.70;;;;;;;;;;5023887;28;20129;-43
2022/12/01 10:24:28;;;;;;;5.25;2.65;;;;;;;;;;5018289;28;20037;-45
2022/12/01 10:27:12;;;;;;;3.65;2.65;;;;;;;;;;5021528;28;20025;-44
2022/12/01 10:30:08;;;;;;;2.67;2.47;;;;;;;;;;5023019;28;20029;-43
2022/12/01 10:32:55;;;;;;;4.18;2.25;;;;;;;;;;5009134;28;20517;-46
2022/12/01 10:35:23;;;;;;;3.85;2.30;;;;;;;;;;5021650;28;20087;-43
2022/12/01 10:38:14;;;;;;;3.65;2.70;;;;;;;;;;5027004;28;20033;-43
2022/12/01 10:40:41;;;;;;;3.90;2.63;;;;;;;;;;5006415;28;20049;-46
2022/12/01 10:43:09;;;;;;;4.65;3.47;;;;;;;;;;5002142;28;20037;-45
2022/12/01 10:45:40;;;;;;;7.45;3.13;;;;;;;;;;5026234;28;20635;-46
2022/12/01 10:48:08;;;;;;;4.10;2.42;;;;;;;;;;5023844;28;20069;-44
2022/12/01 10:50:35;;;;;;;3.58;2.30;;;;;;;;;;5024374;28;20502;-44
2022/12/01 10:53:00;;;;;;;3.08;2.78;;;;;;;;;;5026932;28;20583;-43
2022/12/01 10:55:29;;;;;;;2.65;2.38;;;;;;;;;;5027495;28;20057;-44
2022/12/01 10:57:56;;;;;;;8.63;3.53;;;;;;;;;;5019095;28;20030;-43
2022/12/01 11:00:35;;;;;;;4.75;2.42;;;;;;;;;;5022754;28;20049;-44
2022/12/01 11:03:02;;;;;;;2.40;2.08;;;;;;;;;;5027101;28;20040;-44
2022/12/01 11:05:31;;;;;;;3.53;2.40;;;;;;;;;;5024689;28;20115;-43
2022/12/01 11:07:57;;;;;;;4.90;2.40;;;;;;;;;;5025457;28;20044;-44
2022/12/01 11:10:28;;;;;;;2.50;2.30;;;;;;;;;;5021196;28;20505;-44
2022/12/01 11:13:13;;;;;;;5.35;2.25;;;;;;;;;;5026187;28;20036;-44
2022/12/01 11:15:47;;;;;;;2.35;2.17;;;;;;;;;;5021016;28;20456;-44
2022/12/01 11:18:28;;;;;;;8.07;2.30;;;;;;;;;;5022579;28;20021;-44
2022/12/01 11:21:26;;;;;;;8.60;2.72;;;;;;;;;;5020390;28;20029;-46
2022/12/01 11:23:54;;;;;;;2.83;2.22;;;;;;;;;;5019763;28;20053;-45
2022/12/01 11:26:33;;;;;;;2.22;2.00;;;;;;;;;;5022270;28;20087;-44
2022/12/01 11:29:03;;;;;;;2.90;2.13;;;;;;;;;;5013351;28;20099;-46
2022/12/01 11:31:41;;;;;;;3.45;2.20;;;;;;;;;;5000968;28;20045;-44
2022/12/01 11:34:22;;;;;;;2.53;1.95;;;;;;;;;;5008870;28;20107;-44
2022/12/01 11:36:51;;;;;;;7.20;2.15;;;;;;;;;;5021878;28;20033;-44
2022/12/01 11:39:35;;;;;;;3.72;2.50;;;;;;;;;;5020390;28;20064;-46
2022/12/01 11:42:14;;;;;;;3.03;2.15;;;;;;;;;;5023388;28;20042;-45
2022/12/01 11:44:49;;;;;;;4.43;2.45;;;;;;;;;;5019690;28;20041;-45
2022/12/01 11:47:26;;;;;;;9.40;3.30;;;;;;;;;;5018386;28;20045;-44
2022/12/01 11:49:55;;;;;;;4.13;2.03;;;;;;;;;;5021097;28;20048;-44
2022/12/01 11:52:23;;;;;;;5.72;2.15;;;;;;;;;;5022625;28;20025;-46
2022/12/01 11:55:20;;;;;;;4.10;3.42;;;;;;;;;;5023461;28;20038;-43
2022/12/01 11:57:48;;;;;;;3.10;2.67;;;;;;;;;;5024653;28;20030;-45
2022/12/01 12:00:16;;;;;;;4.47;2.53;;;;;;;;;;5021287;28;20041;-44
2022/12/01 12:03:05;;;;;;;5.70;2.10;;;;;;;;;;5022092;28;20032;-44
2022/12/01 12:05:45;;;;;;;5.60;2.60;;;;;;;;;;5022162;28;20045;-44
2022/12/01 12:08:32;;;;;;;9.02;2.33;;;;;;;;;;5023061;28;20033;-44
2022/12/01 12:11:10;;;;;;;4.50;2.50;;;;;;;;;;5025578;28;20386;-44
2022/12/01 12:13:35;;;;;;;4.97;2.42;;;;;;;;;;5023416;28;20052;-44
2022/12/01 12:16:09;;;;;;;3.92;3.35;;;;;;;;;;5022854;28;20029;-43
2022/12/01 12:18:58;;;;;;;5.05;3.05;;;;;;;;;;5023331;28;20614;-45
2022/12/01 12:21:33;;;;;;;8.82;3.22;;;;;;;;;;5018418;28;20096;-51
2022/12/01 12:24:02;;;;;;;5.35;3.33;;;;;;;;;;5023121;28;20069;-44
2022/12/01 12:26:31;;;;;;;4.80;3.42;;;;;;;;;;5025906;28;20028;-46
2022/12/01 12:29:13;;;;;;;3.85;2.33;;;;;;;;;;5018573;28;20080;-44
2022/12/01 12:31:57;;;;;;;5.78;3.47;;;;;;;;;;5023033;28;20448;-44
2022/12/01 12:34:32;;;;;;;4.68;2.88;;;;;;;;;;5021046;28;20042;-44
2022/12/01 12:37:30;;;;;;;4.93;2.80;;;;;;;;;;5021272;28;20026;-46
2022/12/01 12:40:21;;;;;;;4.25;2.85;;;;;;;;;;5005281;28;21594;-44
2022/12/01 12:43:05;;;;;;;3.92;2.47;;;;;;;;;;4941521;28;20055;-45
2022/12/01 12:45:46;;;;;;;5.20;2.80;;;;;;;;;;4964572;28;20043;-44
2022/12/01 12:48:23;;;;;;;3.80;2.65;;;;;;;;;;4961903;28;20051;-47
2022/12/01 12:51:18;;;;;;;9.85;2.80;;;;;;;;;;4964129;28;20431;-46
2022/12/01 12:53:53;;;;;;;4.53;2.60;;;;;;;;;;4885567;29;20053;-45
2022/12/01 12:56:23;;;;;;;7.30;2.75;;;;;;;;;;4889382;29;20506;-44
2022/12/01 12:59:05;;;;;;;3.08;2.70;;;;;;;;;;4882504;29;20049;-47
2022/12/01 13:01:44;;;;;;;3.15;2.35;;;;;;;;;;4888202;29;20033;-45
2022/12/01 13:04:19;;;;;;;5.95;2.60;;;;;;;;;;4888125;29;20056;-45
2022/12/01 13:06:51;;;;;;;5.00;2.72;;;;;;;;;;4883470;29;20131;-46
2022/12/01 13:09:25;;;;;;;2.50;2.30;;;;;;;;;;4889026;29;20076;-45
2022/12/01 13:12:00;;;;;;;4.03;2.67;;;;;;;;;;4889761;29;20049;-46
2022/12/01 13:14:31;;;;;;;3.63;2.72;;;;;;;;;;4889571;29;20129;-45
2022/12/01 13:17:06;;;;;;;3.47;2.63;;;;;;;;;;4893210;29;20040;-47
2022/12/01 13:19:35;;;;;;;5.22;3.00;;;;;;;;;;4925389;28;20062;-45
2022/12/01 13:22:01;;;;;;;6.75;3.10;;;;;;;;;;4963618;28;20387;-47
2022/12/01 13:24:29;;;;;;;4.65;3.40;;;;;;;;;;4951817;28;20043;-45
2022/12/01 13:27:12;;;;;;;6.20;3.58;;;;;;;;;;4966157;28;20400;-44
2022/12/01 13:29:43;;;;;;;5.07;3.50;;;;;;;;;;4958485;28;20093;-46
2022/12/01 13:32:25;;;;;;;8.75;4.32;;;;;;;;;;5018458;28;20040;-44
2022/12/01 13:34:51;;;;;;;4.22;3.70;;;;;;;;;;5020609;28;20053;-46
2022/12/01 13:37:25;;;;;;;4.45;3.50;;;;;;;;;;5021162;28;20033;-46
2022/12/01 13:39:53;;;;;;;3.90;3.40;;;;;;;;;;5018439;28;20514;-44
2022/12/01 13:42:24;;;;;;;5.85;3.28;;;;;;;;;;5022871;28;20049;-47
2022/12/01 13:45:06;;;;;;;2.80;2.50;;;;;;;;;;5022921;28;20042;-44
2022/12/01 13:47:38;;;;;;;5.28;3.10;;;;;;;;;;5020718;28;20038;-45
2022/12/01 13:50:35;;;;;;;5.93;3.35;;;;;;;;;;5024950;28;20034;-44
2022/12/01 13:53:19;;;;;;;13.70;8.98;;;;;;;;;;5024962;28;20034;-45
2022/12/01 13:56:01;;;;;;;4.57;3.30;;;;;;;;;;5023926;28;20769;-46
2022/12/01 13:58:33;;;;;;;;;;;;;;;;;;5020163;28;20108;-44
2022/12/01 14:01:19;;;;;;;7.50;3.92;;;;;;;;;;5021014;28;20008;-46
2022/12/01 14:04:11;;;;;;;8.40;4.72;;;;;;;;;;5027072;28;20091;-44
2022/12/01 14:06:45;;;;;;;4.60;2.85;;;;;;;;;;5013941;28;20041;-45
2022/12/01 14:09:19;;;;;;;5.70;3.88;;;;;;;;;;5035980;28;20088;-45
2022/12/01 14:12:00;;;;;;;4.32;3.30;;;;;;;;;;5024404;28;20057;-44
2022/12/01 14:14:33;;;;;;;5.43;3.40;;;;;;;;;;5020343;28;20123;-44
2022/12/01 14:17:01;;;;;;;;;;;;;;;;;;5024030;28;20026;-44
2022/12/01 14:19:42;;;;;;;4.30;3.90;;;;;;;;;;5026830;28;19963;-44
2022/12/01 14:22:32;;;;;;;6.18;3.88;;;;;;;;;;5024352;28;20148;-44
2022/12/01 14:24:58;;;;;;;7.45;4.10;;;;;;;;;;5021695;28;20056;-45
2022/12/01 14:27:43;;;;;;;4.20;3.60;;;;;;;;;;5026107;28;20136;-46
2022/12/01 14:33:36;;;;;;;5.40;4.90;;;;;;;;;;5023410;28;20600;-44
2022/12/01 14:36:05;;;;;;;6.30;4.55;;;;;;;;;;5027405;28;20060;-44
2022/12/01 14:38:31;;;;;;;7.03;5.00;;;;;;;;;;5025795;28;20037;-44
2022/12/01 14:40:57;;;;;;;5.28;4.50;;;;;;;;;;5025934;28;20420;-44
2022/12/01 14:46:10;;;;;;;9.30;7.45;;;;;;;;;;5027421;28;20068;-45
2022/12/01 14:48:44;;;;;;;8.05;7.25;;;;;;;;;;5021006;28;20129;-46
2022/12/01 14:51:20;;;;;;;8.88;6.68;;;;;;;;;;5023926;28;20478;-44
2022/12/01 14:53:50;;;;;;;8.55;4.72;;;;;;;;;;5024153;28;20349;-48
2022/12/01 14:56:21;;;;;;;10.25;5.82;;;;;;;;;;5026096;28;20371;-45
2022/12/01 14:58:55;;;;;;;10.32;7.30;;;;;;;;;;5024240;28;20042;-46
2022/12/01 15:01:22;;;;;;;20.70;9.60;;;;;;;;;;5023478;28;20041;-45
2022/12/01 15:03:55;;;;;;;22.83;13.15;;;;;;;;;;5024344;28;20046;-47
2022/12/01 15:06:23;;;;;;;13.00;8.05;;;;;;;;;;5022990;28;20382;-44
2022/12/01 15:09:06;;;;;;;11.50;9.00;;;;;;;;;;5023193;28;20069;-44
2022/12/01 15:11:32;;;;;;;;;;;;;;;;;;5025124;28;20056;-45
2022/12/01 15:13:57;;;;;;;10.77;7.60;;;;;;;;;;5021036;28;19921;-44
2022/12/01 15:16:27;;;;;;;8.73;7.03;;;;;;;;;;5025372;28;20327;-45